Chachapoyas, Argentina
Current Conditions -  °F | °C
As of 6:00 PM on Friday 28 Nov 2014 (Local Time) from SASA Reporting Station
Broken Clouds Broken Clouds  
Wind Chill: 81°   Ceiling: 20000
Heat Index: 81°   Visibility: 6mi
Dew Point: 55°   Wind: 12mph
Humidity: 42%   Direction: 50°NE
Pressure: 29.88"   Gusts: NA
Location:  24.75°S, 65.38°W
Report Text: SASA 282100Z 05010KT 9999 SCT010TCU BKN200 27/13 Q1012
Loading
Personal Weather Stations






























Interactive Weather Map New forecast layout! Learn more

10-Day Weather Forecast

Advertisements
Track Severe Weather on mobile